Time;durP1;ratioP1;P1;durP2;ratioP2;P2;SDS_P1;SDS_P2;PMS_P1;PMS_P2;Temp;Humidity;BMP_temperature;BMP_pressure;BME280_temperature;BME280_humidity;BME280_pressure;Samples;Min_cycle;Max_cycle;Signal;HPM_P1;HPM_P2
2022/04/04 00:00:45;;;;;;;9.68;3.72;;;3.10;99.90;;;;;;4904458;29;20056;-86
2022/04/04 00:03:11;;;;;;;10.50;3.45;;;3.10;99.90;;;;;;4903857;29;20070;-86
2022/04/04 00:05:38;;;;;;;9.35;3.63;;;3.10;99.90;;;;;;4902840;29;20055;-87
2022/04/04 00:08:05;;;;;;;10.35;3.70;;;3.10;99.90;;;;;;4907156;29;20454;-85
2022/04/04 00:10:31;;;;;;;9.63;3.60;;;3.00;99.90;;;;;;4885892;29;20063;-86
2022/04/04 00:12:56;;;;;;;9.45;3.92;;;3.10;99.90;;;;;;4906982;29;20111;-86
2022/04/04 00:15:22;;;;;;;11.38;4.28;;;3.00;99.90;;;;;;4884416;29;20088;-86
2022/04/04 00:17:48;;;;;;;10.32;4.28;;;3.00;99.90;;;;;;4879268;29;20058;-86
2022/04/04 00:20:14;;;;;;;9.23;4.28;;;3.00;99.90;;;;;;4907798;29;20041;-85
2022/04/04 00:22:41;;;;;;;9.68;4.07;;;3.00;99.90;;;;;;4885203;29;20054;-86
2022/04/04 00:25:08;;;;;;;8.60;3.83;;;3.10;99.90;;;;;;4896588;29;20032;-85
2022/04/04 00:27:33;;;;;;;9.75;3.95;;;3.10;99.90;;;;;;4930279;29;20060;-86
2022/04/04 00:29:59;;;;;;;9.32;4.03;;;3.00;99.90;;;;;;4927188;29;20098;-86
2022/04/04 00:32:24;;;;;;;9.50;3.90;;;3.10;99.90;;;;;;4907823;29;20091;-87
2022/04/04 00:34:50;;;;;;;8.55;3.88;;;3.00;99.90;;;;;;4897222;29;20127;-86
2022/04/04 00:37:15;;;;;;;9.15;3.72;;;3.00;99.90;;;;;;4905104;29;20067;-85
2022/04/04 00:39:41;;;;;;;9.25;4.10;;;3.10;99.90;;;;;;4911004;29;20036;-86
2022/04/04 00:42:07;;;;;;;9.82;4.57;;;3.10;99.90;;;;;;4881932;29;20080;-87
2022/04/04 00:44:33;;;;;;;8.98;3.88;;;3.10;99.90;;;;;;4895182;29;20074;-86
2022/04/04 00:46:59;;;;;;;10.23;4.20;;;3.10;99.90;;;;;;4903965;29;20048;-86
2022/04/04 00:49:24;;;;;;;10.30;4.63;;;3.10;99.90;;;;;;4895025;29;20087;-87
2022/04/04 00:51:50;;;;;;;9.13;3.85;;;3.10;99.90;;;;;;4896407;29;20131;-86
2022/04/04 00:54:16;;;;;;;9.75;4.18;;;3.10;99.90;;;;;;4888949;29;20629;-87
2022/04/04 00:56:43;;;;;;;9.63;4.13;;;3.10;99.90;;;;;;4904680;29;20525;-86
2022/04/04 00:59:13;;;;;;;7.72;3.78;;;3.10;99.90;;;;;;4905570;29;20055;-86
2022/04/04 01:01:40;;;;;;;8.27;3.85;;;3.10;99.90;;;;;;4888292;29;20171;-88
2022/04/04 01:04:08;;;;;;;11.68;4.70;;;3.10;99.90;;;;;;4908467;29;20048;-87
2022/04/04 01:06:35;;;;;;;9.68;4.32;;;3.20;99.90;;;;;;4902986;29;20051;-87
2022/04/04 01:09:02;;;;;;;9.38;4.07;;;3.30;99.90;;;;;;4882992;29;20055;-86
2022/04/04 01:11:28;;;;;;;11.18;5.00;;;3.30;99.90;;;;;;4892418;29;20070;-86
2022/04/04 01:13:53;;;;;;;10.95;5.35;;;3.30;99.90;;;;;;4903638;29;20048;-86
2022/04/04 01:16:19;;;;;;;11.73;5.75;;;3.40;99.90;;;;;;4883641;29;20131;-87
2022/04/04 01:18:45;;;;;;;11.18;5.50;;;3.40;99.90;;;;;;4873231;29;20490;-86
2022/04/04 01:21:10;;;;;;;13.27;6.47;;;3.50;99.90;;;;;;4889214;29;20036;-86
2022/04/04 01:23:41;;;;;;;11.95;6.00;;;3.50;99.90;;;;;;4923977;29;20044;-86
2022/04/04 01:26:09;;;;;;;9.73;5.55;;;3.60;99.90;;;;;;4890314;29;20155;-86
2022/04/04 01:28:35;;;;;;;11.20;6.45;;;3.60;99.90;;;;;;4886811;29;20055;-86
2022/04/04 01:31:00;;;;;;;13.55;7.57;;;3.70;99.90;;;;;;4890109;29;20052;-87
2022/04/04 01:33:26;;;;;;;13.20;7.57;;;3.70;99.90;;;;;;4902382;29;20051;-86
2022/04/04 01:35:52;;;;;;;14.00;8.00;;;3.70;99.90;;;;;;4887398;29;20055;-85
2022/04/04 01:38:18;;;;;;;13.10;8.27;;;3.80;99.90;;;;;;4906745;29;20129;-86
2022/04/04 01:40:44;;;;;;;15.05;9.02;;;3.80;99.90;;;;;;4914479;29;20168;-86
2022/04/04 01:43:09;;;;;;;15.35;8.32;;;3.80;99.90;;;;;;4902642;29;20056;-86
2022/04/04 01:48:19;;;;;;;16.88;8.60;;;3.80;99.90;;;;;;4910359;29;20142;-86
2022/04/04 01:50:45;;;;;;;13.93;8.85;;;3.80;99.90;;;;;;4884132;29;20045;-87
2022/04/04 01:53:25;;;;;;;15.45;9.23;;;3.80;99.90;;;;;;4898994;29;20047;-85
2022/04/04 01:55:52;;;;;;;14.77;8.68;;;3.80;99.90;;;;;;4897546;29;20048;-86
2022/04/04 01:58:18;;;;;;;14.05;8.52;;;3.80;99.90;;;;;;4909778;29;20051;-86
2022/04/04 02:00:44;;;;;;;14.82;8.98;;;3.80;99.90;;;;;;4906366;29;20037;-86
2022/04/04 02:03:10;;;;;;;15.13;9.15;;;3.80;99.90;;;;;;4904020;29;20049;-87
2022/04/04 02:05:35;;;;;;;16.40;9.45;;;3.80;99.90;;;;;;4911169;29;20443;-86
2022/04/04 02:08:02;;;;;;;15.85;8.98;;;3.80;99.90;;;;;;4881127;29;20055;-86
2022/04/04 02:10:28;;;;;;;15.02;8.77;;;3.90;99.90;;;;;;4876139;29;20091;-86
2022/04/04 02:12:53;;;;;;;18.98;9.82;;;3.90;99.90;;;;;;4909796;29;20044;-86
2022/04/04 02:15:19;;;;;;;13.82;9.02;;;4.00;99.90;;;;;;4906755;29;20339;-85
2022/04/04 02:17:44;;;;;;;14.35;9.55;;;4.00;99.90;;;;;;4906523;29;20071;-85
2022/04/04 02:20:10;;;;;;;19.58;10.23;;;4.10;99.90;;;;;;4902731;29;20040;-86
2022/04/04 02:22:36;;;;;;;17.80;9.82;;;4.10;99.90;;;;;;4907951;29;20066;-86
2022/04/04 02:25:01;;;;;;;17.77;9.35;;;4.20;99.90;;;;;;4890806;29;20080;-86
2022/04/04 02:27:28;;;;;;;15.27;9.55;;;4.30;99.90;;;;;;4901409;29;20049;-85
2022/04/04 02:29:54;;;;;;;16.67;10.23;;;4.30;99.90;;;;;;4903822;29;20040;-86
2022/04/04 02:32:20;;;;;;;17.15;10.90;;;4.30;99.90;;;;;;4880161;29;20045;-87
2022/04/04 02:34:46;;;;;;;18.63;10.95;;;4.30;99.90;;;;;;4909856;29;20040;-86
2022/04/04 02:37:12;;;;;;;18.20;11.38;;;4.40;99.90;;;;;;4906608;29;20036;-85
2022/04/04 02:39:38;;;;;;;18.45;11.90;;;4.40;99.90;;;;;;4881110;29;20052;-87
2022/04/04 02:42:04;;;;;;;17.88;10.80;;;4.40;99.90;;;;;;4905408;29;20124;-86
2022/04/04 02:44:29;;;;;;;15.38;10.15;;;4.50;99.90;;;;;;4890529;29;20055;-87
2022/04/04 02:46:55;;;;;;;17.48;11.05;;;4.50;99.90;;;;;;4889870;29;20052;-86
2022/04/04 02:49:21;;;;;;;17.05;10.13;;;4.50;99.90;;;;;;4883822;29;20053;-86
2022/04/04 02:51:46;;;;;;;16.83;10.00;;;4.50;99.90;;;;;;4884135;29;20050;-86
2022/04/04 02:54:12;;;;;;;17.00;10.35;;;4.50;99.90;;;;;;4879442;29;20044;-85
2022/04/04 02:56:41;;;;;;;17.60;10.65;;;4.50;99.90;;;;;;4909385;29;20368;-86
2022/04/04 02:59:08;;;;;;;17.77;10.77;;;4.60;99.90;;;;;;4905578;29;20075;-86
2022/04/04 03:01:35;;;;;;;18.90;11.32;;;4.60;99.90;;;;;;4911962;29;20043;-86
2022/04/04 03:04:02;;;;;;;16.40;10.63;;;4.60;99.90;;;;;;4907158;29;20059;-86
2022/04/04 03:06:28;;;;;;;19.77;12.23;;;4.60;99.90;;;;;;4902967;29;20044;-86
2022/04/04 03:08:54;;;;;;;17.98;11.23;;;4.70;99.90;;;;;;4913968;29;20091;-85
2022/04/04 03:11:20;;;;;;;16.45;10.23;;;4.70;99.90;;;;;;4888442;29;20490;-85
2022/04/04 03:13:46;;;;;;;20.25;10.45;;;4.80;99.90;;;;;;4894782;29;20446;-86
2022/04/04 03:16:12;;;;;;;18.60;10.13;;;4.80;99.90;;;;;;4912278;29;20092;-88
2022/04/04 03:18:38;;;;;;;18.30;11.00;;;4.90;99.90;;;;;;4905041;29;20044;-87
2022/04/04 03:21:04;;;;;;;21.40;10.48;;;4.90;99.90;;;;;;4901784;29;20040;-86
2022/04/04 03:23:31;;;;;;;18.40;11.10;;;5.00;99.90;;;;;;4906674;29;20048;-87
2022/04/04 03:25:57;;;;;;;16.95;10.95;;;5.00;99.90;;;;;;4909089;29;20390;-87
2022/04/04 03:28:22;;;;;;;18.95;10.43;;;5.00;99.90;;;;;;4886080;29;20052;-87
2022/04/04 03:30:48;;;;;;;17.13;10.55;;;5.00;99.90;;;;;;4903527;29;20462;-86
2022/04/04 03:33:15;;;;;;;16.60;9.82;;;5.00;99.90;;;;;;4889598;29;20084;-87
2022/04/04 03:35:41;;;;;;;17.38;10.98;;;5.10;99.90;;;;;;4892818;29;20460;-86
2022/04/04 03:38:10;;;;;;;18.80;10.27;;;5.10;99.90;;;;;;4888723;29;20127;-87
2022/04/04 03:40:37;;;;;;;18.20;10.55;;;5.20;99.90;;;;;;4904177;29;20528;-86
2022/04/04 03:43:03;;;;;;;17.83;10.63;;;5.20;99.90;;;;;;4910559;29;20404;-87
2022/04/04 03:45:30;;;;;;;18.67;10.63;;;5.20;99.90;;;;;;4909347;29;20087;-87
2022/04/04 03:47:56;;;;;;;18.95;10.95;;;5.30;99.90;;;;;;4912389;29;20079;-86
2022/04/04 03:50:23;;;;;;;18.40;10.57;;;5.30;99.90;;;;;;4905435;29;20048;-87
2022/04/04 03:52:52;;;;;;;17.98;10.57;;;5.30;99.90;;;;;;4902333;29;20107;-87
2022/04/04 03:55:19;;;;;;;17.70;11.27;;;5.20;99.90;;;;;;4899368;29;20714;-87
2022/04/04 03:57:45;;;;;;;18.17;10.43;;;5.30;99.90;;;;;;4906690;29;20052;-86
2022/04/04 04:00:11;;;;;;;15.88;10.07;;;5.30;99.90;;;;;;4883139;29;20043;-87
2022/04/04 04:02:40;;;;;;;15.70;10.10;;;5.30;99.90;;;;;;4893240;29;20160;-86
2022/04/04 04:05:06;;;;;;;17.63;11.15;;;5.30;99.90;;;;;;4904637;29;20143;-88
2022/04/04 04:07:32;;;;;;;16.13;10.18;;;5.40;99.90;;;;;;4905448;29;20116;-86
2022/04/04 04:09:58;;;;;;;17.58;10.95;;;5.40;99.90;;;;;;4883716;29;20570;-87
2022/04/04 04:12:23;;;;;;;16.38;10.25;;;5.40;99.90;;;;;;4883855;29;20254;-87
2022/04/04 04:14:51;;;;;;;18.73;11.05;;;5.40;99.90;;;;;;4907170;29;20051;-86
2022/04/04 04:17:19;;;;;;;15.88;10.55;;;5.40;99.90;;;;;;4903770;29;20052;-86
2022/04/04 04:22:30;;;;;;;17.00;11.23;;;5.40;99.90;;;;;;4904692;29;20489;-86
2022/04/04 04:24:56;;;;;;;16.77;10.77;;;5.40;99.90;;;;;;4909798;29;20047;-87
2022/04/04 04:27:21;;;;;;;16.63;10.73;;;5.40;99.90;;;;;;4906930;29;20570;-88
2022/04/04 04:29:47;;;;;;;17.45;11.05;;;5.40;99.90;;;;;;4910796;29;20056;-86
2022/04/04 04:32:13;;;;;;;17.90;10.55;;;5.40;99.90;;;;;;4880002;29;20052;-86
2022/04/04 04:34:39;;;;;;;17.42;11.07;;;5.50;99.90;;;;;;4900221;29;20099;-87
2022/04/04 04:37:05;;;;;;;16.48;11.00;;;5.50;99.90;;;;;;4905485;29;20130;-87
2022/04/04 04:39:31;;;;;;;16.02;11.02;;;5.50;99.90;;;;;;4898211;29;20056;-87
2022/04/04 04:41:57;;;;;;;15.93;10.90;;;5.40;99.90;;;;;;4860938;29;20081;-87
2022/04/04 04:44:23;;;;;;;18.10;10.30;;;5.50;99.90;;;;;;4916952;29;20063;-89
2022/04/04 04:46:49;;;;;;;17.52;11.02;;;5.50;99.90;;;;;;4905194;29;20050;-87
2022/04/04 04:49:15;;;;;;;16.25;11.05;;;5.40;99.90;;;;;;4902002;29;20052;-87
2022/04/04 04:51:41;;;;;;;16.10;10.48;;;5.40;99.90;;;;;;4905416;29;20353;-86
2022/04/04 04:54:08;;;;;;;18.88;11.50;;;5.40;99.90;;;;;;4902253;29;20122;-86
2022/04/04 04:56:34;;;;;;;19.25;11.50;;;5.40;99.90;;;;;;4894145;29;20089;-87
2022/04/04 04:59:00;;;;;;;16.27;10.48;;;5.40;99.90;;;;;;4907267;29;20107;-86
2022/04/04 05:01:25;;;;;;;20.40;12.38;;;5.50;99.90;;;;;;4909426;29;20054;-87
2022/04/04 05:03:51;;;;;;;17.05;11.50;;;5.40;99.90;;;;;;4907978;29;20044;-86
2022/04/04 05:06:17;;;;;;;20.88;12.40;;;5.50;99.90;;;;;;4876816;29;20409;-87
2022/04/04 05:08:43;;;;;;;19.45;11.68;;;5.40;99.90;;;;;;4909269;29;20111;-87
2022/04/04 05:11:08;;;;;;;18.45;11.50;;;5.40;99.90;;;;;;4909895;29;20809;-87
2022/04/04 05:13:34;;;;;;;16.75;11.90;;;5.50;99.90;;;;;;4905822;29;20509;-88
2022/04/04 05:16:00;;;;;;;19.90;11.82;;;5.50;99.90;;;;;;4909109;29;20040;-86
2022/04/04 05:18:26;;;;;;;16.27;12.23;;;5.50;99.90;;;;;;4910253;29;20051;-87
2022/04/04 05:20:52;;;;;;;16.70;12.57;;;5.50;99.90;;;;;;4912878;29;20055;-85
2022/04/04 05:23:17;;;;;;;18.40;11.02;;;5.40;99.90;;;;;;4892618;29;20060;-86
2022/04/04 05:25:43;;;;;;;20.02;11.80;;;5.50;99.90;;;;;;4892683;29;20040;-84
2022/04/04 05:28:10;;;;;;;16.83;11.00;;;5.40;99.90;;;;;;4908416;29;20052;-85
2022/04/04 05:30:36;;;;;;;15.93;11.07;;;5.40;99.90;;;;;;4902056;29;20044;-85
2022/04/04 05:33:02;;;;;;;17.38;11.07;;;5.50;99.90;;;;;;4891208;29;20581;-87
2022/04/04 05:35:28;;;;;;;17.60;12.13;;;5.40;99.90;;;;;;4888626;29;20048;-85
2022/04/04 05:37:55;;;;;;;20.27;11.40;;;5.40;99.90;;;;;;4896696;29;20485;-86
2022/04/04 05:40:24;;;;;;;18.77;11.15;;;5.50;99.90;;;;;;4899187;29;20045;-89
2022/04/04 05:42:50;;;;;;;18.27;11.80;;;5.50;99.90;;;;;;4906412;29;20087;-86
2022/04/04 05:45:15;;;;;;;16.80;12.35;;;5.50;99.90;;;;;;4891262;29;20045;-87
2022/04/04 05:47:41;;;;;;;17.52;11.15;;;5.50;99.90;;;;;;4892414;29;20049;-86
2022/04/04 05:50:07;;;;;;;17.42;11.65;;;5.50;99.90;;;;;;4890526;29;20040;-86
2022/04/04 05:52:34;;;;;;;15.07;11.13;;;5.50;99.90;;;;;;4892530;29;20055;-86
2022/04/04 05:55:02;;;;;;;16.70;10.93;;;5.50;99.90;;;;;;4874007;29;20510;-89
2022/04/04 05:57:31;;;;;;;17.85;11.00;;;5.60;99.90;;;;;;4892433;29;20056;-86
2022/04/04 05:59:57;;;;;;;16.80;10.82;;;5.60;99.90;;;;;;4873561;29;20081;-86
2022/04/04 06:02:23;;;;;;;16.52;10.23;;;5.60;99.90;;;;;;4891631;29;20072;-86
2022/04/04 06:04:50;;;;;;;14.75;9.63;;;5.60;99.90;;;;;;4891983;29;20364;-85
2022/04/04 06:07:17;;;;;;;15.52;10.77;;;5.60;99.90;;;;;;4892611;29;20375;-85
2022/04/04 06:09:42;;;;;;;16.45;11.40;;;5.60;99.90;;;;;;4874261;29;20044;-84
2022/04/04 06:12:08;;;;;;;16.23;10.05;;;5.50;99.90;;;;;;4874118;29;20047;-85
2022/04/04 06:14:34;;;;;;;16.67;10.25;;;5.50;99.90;;;;;;4891598;29;20059;-84
2022/04/04 06:17:06;;;;;;;17.75;10.75;;;5.50;99.90;;;;;;4891144;29;20047;-84
2022/04/04 06:19:34;;;;;;;17.60;10.27;;;5.50;99.90;;;;;;4891011;29;20740;-85
2022/04/04 06:22:00;;;;;;;14.85;10.80;;;5.50;99.90;;;;;;4873788;29;20048;-86
2022/04/04 06:24:26;;;;;;;16.15;10.38;;;5.50;99.90;;;;;;4874463;29;20055;-85
2022/04/04 06:26:52;;;;;;;16.92;10.73;;;5.50;99.90;;;;;;4874841;29;20040;-84
2022/04/04 06:29:17;;;;;;;18.15;10.73;;;5.50;99.90;;;;;;4889796;29;20112;-84
2022/04/04 06:31:44;;;;;;;18.10;11.32;;;5.50;99.90;;;;;;4891638;29;20045;-84
2022/04/04 06:34:10;;;;;;;17.25;10.73;;;5.50;99.90;;;;;;4890398;29;20057;-84
2022/04/04 06:36:38;;;;;;;15.52;11.38;;;5.50;99.90;;;;;;4891370;29;20047;-86
2022/04/04 06:39:05;;;;;;;17.45;11.45;;;5.50;99.90;;;;;;4892429;29;20060;-84
2022/04/04 06:41:31;;;;;;;15.90;11.88;;;5.40;99.90;;;;;;4889621;29;20506;-83
2022/04/04 06:43:57;;;;;;;17.13;11.00;;;5.40;99.90;;;;;;4866544;29;20071;-83
2022/04/04 06:46:23;;;;;;;17.90;10.82;;;5.40;99.90;;;;;;4890239;29;20045;-84
2022/04/04 06:48:50;;;;;;;18.50;10.82;;;5.40;99.90;;;;;;4881220;29;20391;-83
2022/04/04 06:51:17;;;;;;;15.50;11.23;;;5.40;99.90;;;;;;4888195;29;20362;-84
2022/04/04 06:53:42;;;;;;;16.63;10.68;;;5.40;99.90;;;;;;4887593;29;20053;-84
2022/04/04 06:56:08;;;;;;;17.90;11.40;;;5.30;99.90;;;;;;4888895;29;20051;-86
2022/04/04 06:58:33;;;;;;;16.67;11.70;;;5.40;99.90;;;;;;4870503;29;20084;-85
2022/04/04 07:00:59;;;;;;;18.33;12.20;;;5.30;99.90;;;;;;4867874;29;20088;-85
2022/04/04 07:03:25;;;;;;;17.10;11.18;;;5.30;99.90;;;;;;4885452;29;20041;-84
2022/04/04 07:05:50;;;;;;;16.85;11.27;;;5.30;99.90;;;;;;4851479;29;20076;-84
2022/04/04 07:08:16;;;;;;;18.83;11.32;;;5.30;99.90;;;;;;4888035;29;20060;-85
2022/04/04 07:10:42;;;;;;;18.50;11.65;;;5.20;99.90;;;;;;4890168;29;20518;-84
2022/04/04 07:13:08;;;;;;;16.38;11.60;;;5.20;99.90;;;;;;4884291;29;20060;-87
2022/04/04 07:15:34;;;;;;;16.75;11.10;;;5.20;99.90;;;;;;4889549;29;20044;-83
2022/04/04 07:18:00;;;;;;;20.85;12.25;;;5.20;99.90;;;;;;4885705;29;20103;-83
2022/04/04 07:20:25;;;;;;;18.58;12.82;;;5.20;99.90;;;;;;4893034;29;20064;-88
2022/04/04 07:22:51;;;;;;;16.48;12.98;;;5.20;99.90;;;;;;4876152;29;20045;-84
2022/04/04 07:25:17;;;;;;;17.10;11.93;;;5.20;99.90;;;;;;4890815;29;20049;-86
2022/04/04 07:27:45;;;;;;;17.95;12.35;;;5.30;99.90;;;;;;4859438;29;20082;-89
2022/04/04 07:30:13;;;;;;;20.30;13.02;;;5.30;99.90;;;;;;4888601;29;20037;-88
2022/04/04 07:32:39;;;;;;;18.77;12.10;;;5.30;99.90;;;;;;4876714;29;20060;-83
2022/04/04 07:35:11;;;;;;;20.13;13.45;;;5.30;99.90;;;;;;4882626;29;20041;-87
2022/04/04 07:37:37;;;;;;;19.10;12.35;;;5.30;99.90;;;;;;4873131;29;20459;-84
2022/04/04 07:40:05;;;;;;;19.80;13.63;;;5.30;99.90;;;;;;4866685;29;20384;-84
2022/04/04 07:42:30;;;;;;;20.42;13.45;;;5.30;99.90;;;;;;4891261;29;20063;-84
2022/04/04 07:44:56;;;;;;;20.85;14.07;;;5.30;99.90;;;;;;4886875;29;20404;-82
2022/04/04 07:47:22;;;;;;;23.70;14.88;;;5.40;99.90;;;;;;4906671;29;20100;-83
2022/04/04 07:49:47;;;;;;;20.70;15.23;;;5.40;99.90;;;;;;4907299;29;20052;-83
2022/04/04 07:52:13;;;;;;;21.85;16.38;;;5.40;99.90;;;;;;4905524;29;20055;-83
2022/04/04 07:54:38;;;;;;;21.00;15.18;;;5.40;99.90;;;;;;4907071;29;20397;-84
2022/04/04 07:57:04;;;;;;;22.10;15.25;;;5.40;99.90;;;;;;4889450;29;20087;-83
2022/04/04 07:59:30;;;;;;;20.48;16.33;;;5.40;99.90;;;;;;4888080;29;20073;-82
2022/04/04 08:01:55;;;;;;;22.50;15.30;;;5.40;99.90;;;;;;4897009;29;20059;-85
2022/04/04 08:04:21;;;;;;;22.27;16.70;;;5.40;99.90;;;;;;4891500;29;20045;-84
2022/04/04 08:06:48;;;;;;;21.15;15.95;;;5.40;99.90;;;;;;4902307;29;20048;-84
2022/04/04 08:09:13;;;;;;;20.50;15.60;;;5.40;99.90;;;;;;4900800;29;20048;-84
2022/04/04 08:11:39;;;;;;;20.45;16.38;;;5.40;99.90;;;;;;4893370;29;20047;-84
2022/04/04 08:14:08;;;;;;;24.35;18.08;;;5.50;99.90;;;;;;4889369;29;20139;-85
2022/04/04 08:16:34;;;;;;;24.05;16.63;;;5.50;99.90;;;;;;4881690;29;20052;-84
2022/04/04 08:18:59;;;;;;;21.45;17.13;;;5.50;99.90;;;;;;4887256;29;20082;-84
2022/04/04 08:21:26;;;;;;;22.08;17.70;;;5.50;99.90;;;;;;4904458;29;20041;-84
2022/04/04 08:23:52;;;;;;;23.80;16.58;;;5.50;99.90;;;;;;4895796;29;20059;-83
2022/04/04 08:26:18;;;;;;;23.10;15.75;;;5.50;99.90;;;;;;4904909;29;20414;-83
2022/04/04 08:28:43;;;;;;;21.13;15.45;;;5.60;99.90;;;;;;4888326;29;20050;-83
2022/04/04 08:31:09;;;;;;;20.45;15.80;;;5.60;99.90;;;;;;4895397;29;20140;-84
2022/04/04 08:33:35;;;;;;;21.23;14.63;;;5.60;99.90;;;;;;4901271;29;20044;-83
2022/04/04 08:36:03;;;;;;;21.35;13.40;;;5.70;99.90;;;;;;4915384;29;20044;-84
2022/04/04 08:38:29;;;;;;;19.70;15.52;;;5.70;99.90;;;;;;4889433;29;20044;-87
2022/04/04 08:40:58;;;;;;;19.77;15.25;;;5.70;99.90;;;;;;4899717;29;20079;-83
2022/04/04 08:43:25;;;;;;;19.77;15.00;;;5.70;99.90;;;;;;4906553;29;20048;-85
2022/04/04 08:45:51;;;;;;;19.77;13.98;;;5.70;99.90;;;;;;4904260;29;20503;-85
2022/04/04 08:48:18;;;;;;;18.80;14.40;;;5.80;99.90;;;;;;4887044;29;20147;-85
2022/04/04 08:50:44;;;;;;;20.95;13.43;;;5.80;99.90;;;;;;4884843;29;20159;-87
2022/04/04 08:53:10;;;;;;;17.20;12.82;;;5.80;99.90;;;;;;4903798;29;20127;-86
2022/04/04 08:55:36;;;;;;;17.77;13.45;;;5.80;99.90;;;;;;4900353;29;20052;-85
2022/04/04 08:58:02;;;;;;;20.35;13.23;;;5.80;99.90;;;;;;4892349;29;20412;-84
2022/04/04 09:00:30;;;;;;;16.38;11.32;;;5.70;99.90;;;;;;4892245;29;20048;-83
2022/04/04 09:02:56;;;;;;;16.67;11.77;;;5.80;99.90;;;;;;4892795;29;20051;-85
2022/04/04 09:05:22;;;;;;;15.27;10.93;;;5.80;99.90;;;;;;4898094;29;20099;-86
2022/04/04 09:07:59;;;;;;;14.80;10.68;;;5.80;99.90;;;;;;4897295;29;20056;-84
2022/04/04 09:10:36;;;;;;;13.82;9.20;;;5.80;99.90;;;;;;4905304;29;20047;-85
2022/04/04 09:13:10;;;;;;;13.25;7.93;;;5.90;99.90;;;;;;4882501;29;20044;-84
2022/04/04 09:16:02;;;;;;;14.45;9.00;;;5.90;99.90;;;;;;4903149;29;20136;-84
2022/04/04 09:18:37;;;;;;;10.18;6.28;;;5.90;99.90;;;;;;4908326;29;20126;-84
2022/04/04 09:21:11;;;;;;;13.00;7.13;;;5.90;99.90;;;;;;4887108;29;20044;-86
2022/04/04 09:23:54;;;;;;;11.18;6.80;;;5.90;99.90;;;;;;4902021;29;20060;-87
2022/04/04 09:26:37;;;;;;;10.95;6.88;;;6.00;99.90;;;;;;4901624;29;20040;-85
2022/04/04 09:29:17;;;;;;;13.80;7.28;;;6.00;99.90;;;;;;4902516;29;20044;-84
2022/04/04 09:32:11;;;;;;;12.45;6.75;;;6.00;99.90;;;;;;4894245;29;20371;-90
2022/04/04 09:35:02;;;;;;;12.07;5.78;;;6.00;99.90;;;;;;4881944;29;20044;-87
2022/04/04 09:37:30;;;;;;;10.02;5.07;;;6.00;99.90;;;;;;4884682;29;20056;-87
2022/04/04 09:40:08;;;;;;;8.52;4.82;;;6.00;99.90;;;;;;4919033;29;20048;-83
2022/04/04 09:42:35;;;;;;;8.85;4.75;;;6.00;99.90;;;;;;4892211;29;20155;-85
2022/04/04 09:45:01;;;;;;;9.10;4.53;;;6.00;99.90;;;;;;4899208;29;20129;-88
2022/04/04 09:47:46;;;;;;;8.30;4.60;;;6.00;99.90;;;;;;4899878;29;20056;-90
2022/04/04 09:50:31;;;;;;;9.00;5.07;;;6.00;99.90;;;;;;4907085;29;20048;-88
2022/04/04 09:52:58;;;;;;;8.48;5.22;;;6.00;99.90;;;;;;4905944;29;20053;-87
2022/04/04 09:55:38;;;;;;;8.75;5.45;;;6.00;99.90;;;;;;4877103;29;20498;-87
2022/04/04 09:58:07;;;;;;;8.57;5.43;;;6.10;99.90;;;;;;4903452;29;20048;-87
2022/04/04 10:00:36;;;;;;;9.32;5.65;;;6.00;99.90;;;;;;4896830;29;20048;-84
2022/04/04 10:03:04;;;;;;;7.95;4.57;;;6.10;99.90;;;;;;4898914;29;20074;-85
2022/04/04 10:05:31;;;;;;;9.00;5.35;;;6.10;99.90;;;;;;4914140;29;20485;-85
2022/04/04 10:07:58;;;;;;;8.65;5.53;;;6.10;99.90;;;;;;4894172;29;20099;-86
2022/04/04 10:10:28;;;;;;;9.77;5.05;;;6.20;99.90;;;;;;4908060;29;20083;-89
2022/04/04 10:12:55;;;;;;;8.55;4.72;;;6.20;99.90;;;;;;4897019;29;20052;-86
2022/04/04 10:15:22;;;;;;;8.68;5.18;;;6.20;99.90;;;;;;4891432;29;20056;-88
2022/04/04 10:17:49;;;;;;;8.48;4.50;;;6.20;99.90;;;;;;4891171;29;20048;-85
2022/04/04 10:20:16;;;;;;;8.10;4.55;;;6.20;99.90;;;;;;4902268;29;20052;-84
2022/04/04 10:22:42;;;;;;;10.25;5.03;;;6.20;99.90;;;;;;4896603;29;20060;-89
2022/04/04 10:25:09;;;;;;;9.27;5.43;;;6.20;99.90;;;;;;4874628;29;20474;-87
2022/04/04 10:27:36;;;;;;;8.75;4.75;;;6.20;99.90;;;;;;4883501;29;20048;-85
2022/04/04 10:30:04;;;;;;;8.90;5.10;;;6.20;99.90;;;;;;4903459;29;20090;-86
2022/04/04 10:32:31;;;;;;;9.98;5.22;;;6.20;99.90;;;;;;4900858;29;20422;-85
2022/04/04 10:34:57;;;;;;;9.15;5.00;;;6.20;99.90;;;;;;4891105;29;20078;-85
2022/04/04 10:37:28;;;;;;;8.50;4.57;;;6.30;99.90;;;;;;4902238;29;20052;-85
2022/04/04 10:39:55;;;;;;;9.98;4.88;;;6.30;99.90;;;;;;4882047;29;20049;-89
2022/04/04 10:42:33;;;;;;;9.55;5.43;;;6.30;99.90;;;;;;4881854;29;20509;-86
2022/04/04 10:45:10;;;;;;;9.90;5.78;;;6.30;99.90;;;;;;4883578;29;20060;-87
2022/04/04 10:47:44;;;;;;;10.30;5.28;;;6.30;99.90;;;;;;4882372;29;20045;-86
2022/04/04 10:50:22;;;;;;;8.88;5.18;;;6.40;99.90;;;;;;4886948;29;20041;-85
2022/04/04 10:52:49;;;;;;;8.48;5.43;;;6.40;99.90;;;;;;4863829;29;20056;-86
2022/04/04 10:55:25;;;;;;;8.95;5.28;;;6.40;99.90;;;;;;4883465;29;20089;-85
2022/04/04 10:57:56;;;;;;;9.73;5.55;;;6.50;99.90;;;;;;4888631;29;20067;-87
2022/04/04 11:00:34;;;;;;;9.90;5.15;;;6.50;99.90;;;;;;4892951;29;20140;-86
2022/04/04 11:03:01;;;;;;;9.88;5.97;;;6.50;99.90;;;;;;4870386;29;20059;-86
2022/04/04 11:09:32;;;;;;;9.35;5.03;;;6.60;99.90;;;;;;4880623;29;20053;-84
2022/04/04 11:12:01;;;;;;;8.77;5.57;;;6.60;99.90;;;;;;4861460;29;20460;-85
2022/04/04 11:14:37;;;;;;;9.57;6.03;;;6.70;99.90;;;;;;4867227;29;20048;-85
2022/04/04 11:17:08;;;;;;;8.48;5.13;;;6.70;99.90;;;;;;4874010;29;20052;-84
2022/04/04 11:20:10;;;;;;;9.68;5.38;;;6.80;99.90;;;;;;4875165;29;20049;-86
2022/04/04 11:22:41;;;;;;;7.68;4.43;;;6.80;99.90;;;;;;4872678;29;20084;-84
2022/04/04 11:25:13;;;;;;;10.60;4.85;;;6.90;99.90;;;;;;4896231;29;20040;-87
2022/04/04 11:27:40;;;;;;;9.73;4.78;;;6.90;99.90;;;;;;4863271;29;20044;-85
2022/04/04 11:30:10;;;;;;;8.32;4.72;;;6.90;99.90;;;;;;4875196;29;20407;-84
2022/04/04 11:32:40;;;;;;;9.55;4.70;;;7.00;99.90;;;;;;4874581;29;20119;-83
2022/04/04 11:35:34;;;;;;;8.57;4.72;;;7.00;99.90;;;;;;4883739;29;20052;-85
2022/04/04 11:38:07;;;;;;;8.13;4.50;;;7.00;99.90;;;;;;4888471;29;20041;-86
2022/04/04 11:41:11;;;;;;;8.13;3.95;;;7.00;99.90;;;;;;4879867;29;20048;-84
2022/04/04 11:43:40;;;;;;;6.85;3.88;;;7.10;99.90;;;;;;4909291;29;20060;-85
2022/04/04 11:46:14;;;;;;;6.90;3.55;;;7.10;99.90;;;;;;4889629;29;20068;-85
2022/04/04 11:48:54;;;;;;;8.55;4.55;;;7.20;99.90;;;;;;4899333;29;20044;-86
2022/04/04 11:51:34;;;;;;;6.15;3.35;;;7.20;99.90;;;;;;4908806;29;20044;-85
2022/04/04 11:54:11;;;;;;;7.05;3.33;;;7.20;99.90;;;;;;4892375;29;20104;-84
2022/04/04 11:56:37;;;;;;;9.73;3.63;;;7.20;99.90;;;;;;4901833;29;20040;-85
2022/04/04 11:59:04;;;;;;;7.03;3.15;;;7.20;99.90;;;;;;4876311;29;20056;-88
2022/04/04 12:01:34;;;;;;;8.45;3.67;;;7.20;99.90;;;;;;4901951;29;20053;-87
2022/04/04 12:04:01;;;;;;;7.70;3.40;;;7.30;99.90;;;;;;4886272;29;20048;-84
2022/04/04 12:06:31;;;;;;;5.32;2.80;;;7.30;99.90;;;;;;4907977;29;20049;-86
2022/04/04 12:09:00;;;;;;;6.03;2.97;;;7.40;99.90;;;;;;4908885;29;20903;-85
2022/04/04 12:11:29;;;;;;;8.18;3.22;;;7.40;99.90;;;;;;4906326;29;20431;-84
2022/04/04 12:14:00;;;;;;;6.00;3.13;;;7.40;99.90;;;;;;4881933;29;20504;-87
2022/04/04 12:16:26;;;;;;;6.57;3.07;;;7.50;99.90;;;;;;4896456;29;20083;-86
2022/04/04 12:18:59;;;;;;;6.90;3.35;;;7.50;99.90;;;;;;4904683;29;20132;-87
2022/04/04 12:21:25;;;;;;;6.82;3.33;;;7.50;99.90;;;;;;4896887;29;20048;-86
2022/04/04 12:26:35;;;;;;;7.28;3.75;;;7.70;99.90;;;;;;4896416;29;20099;-84
2022/04/04 12:29:07;;;;;;;5.95;2.78;;;7.70;99.90;;;;;;4887374;29;20080;-83
2022/04/04 12:31:33;;;;;;;;;;;7.70;99.90;;;;;;4923709;29;20060;-86
2022/04/04 12:34:11;;;;;;;6.30;3.08;;;7.70;99.90;;;;;;4908853;29;19922;-86
2022/04/04 12:36:38;;;;;;;4.97;2.90;;;7.70;99.90;;;;;;4901490;29;20175;-82
2022/04/04 12:39:22;;;;;;;4.88;2.45;;;7.70;99.90;;;;;;4915960;29;20033;-86
2022/04/04 12:41:56;;;;;;;6.00;2.95;;;7.80;99.90;;;;;;4925547;29;20524;-86
2022/04/04 12:44:25;;;;;;;5.43;2.80;;;7.80;99.90;;;;;;4914281;29;20086;-83
2022/04/04 12:47:03;;;;;;;4.82;2.72;;;7.80;99.90;;;;;;4928752;29;20133;-85
2022/04/04 12:49:30;;;;;;;4.47;2.55;;;7.80;99.90;;;;;;4908889;29;20048;-88
2022/04/04 12:51:59;;;;;;;4.55;2.33;;;7.80;99.90;;;;;;4886952;29;20394;-85
2022/04/04 12:54:27;;;;;;;5.15;2.35;;;7.80;99.90;;;;;;4892675;29;20079;-87
2022/04/04 12:56:54;;;;;;;4.40;2.45;;;7.80;99.90;;;;;;4907533;29;20039;-86
2022/04/04 12:59:20;;;;;;;7.43;3.67;;;7.90;99.90;;;;;;4884195;29;20048;-85
2022/04/04 13:02:10;;;;;;;5.00;2.28;;;7.90;99.90;;;;;;4887060;29;20056;-85